Republic Airport
KFRG : now visible

Airfield :











YOU CAN JOIN US ON...

 
LOGIN :

Register | Disclaimer

   EN    FR    IT 

 









Legend :    VFR   Marginal VFR   IFR   Intensive IFR   Very Intensive IFR
Visi :
Ceiling :
>= 8 km
>= 3000ft
5 to 8 km
1000 to 3000 ft
1500m to 5 km
500 to 1000 ft
800 to 1500m
200 to 500 ft
< 800m
< 200 ft
Symbols :   Thunderstorms  Fog  Heavy snow  Heavy precipitations  Wind > 20 kt







- Airport Elevation : 82 ft


KFRG - Republic

CURRENT METAR :
  • 211053Z 33014G21KT 10SM BKN044 15/05 A2987 RMK AO2 SLP115 T01500050

EXPIRED METARs :
  • 210953Z AUTO 31005KT 10SM CLR 14/05 A2986 RMK AO2 SLP111 T01440050
  • 210853Z AUTO 33011G18KT 10SM CLR 15/06 A2984 RMK AO2 SLP102 T01500061 51018
  • 210753Z AUTO 32011G18KT 10SM CLR 16/07 A2982 RMK AO2 SLP098 T01610072

TAF N/A
KZNY FIR / North America



MET'MAP, your aeronautical weather chart ! - Copyright ORBIFLY December 2007 - Disclaimer

ORBIFLY MET'MAP TEAM :

Programming & Development : Alexandra Zaïnal
Concept & Development : Baudouin d'Aumeries
Co-Development & Prog : Marc-Olivier Méhu
Technical & hardware support : Manuel Goepfert

Contact : metmap@orbifly.com




SOURCES & CREDITS :

   NOAA       Earth
Advisory